Terminal Aerodrome Forecast
Issued by NWS Wilmington, OH

Current Version | Previous Version | Graphics & Text | Print | Product List | Glossary On
Versions: 1 2 3 4 5 6 7 8 9 10 11 12 13 14 15 16 17 18 19 20 21
000
FTUS41 KILN 021130
TAFDAY
TAF
KDAY 021130Z 0212/0312 24005KT P6SM FEW080 BKN250
     FM021500 24012G18KT P6SM FEW050 SCT200
     FM030000 22010KT P6SM SCT200
     FM031000 24012KT P6SM VCSH BKN050=

USA.gov is the U.S. government's official web portal to all federal, state and local government web resources and services.